• Join FlightAware (Why Join?)
  • Login
  • US Flag 
02:23PM EDT


 

Airport Tracker/Info


-or-


 

Live Flight TrackerFlight Track Log ✈ N528QS ✈ 06-Aug-2013 ✈ KBFI - EFHK / HEL

Flight Track Log - Related Links

Times and Time Zones

All times are in EDT time to prevent confusion due to time zone crossing. See the N528QS flight status page for this flight to view local times or setup timezone preferences in your user account.

Time Position Orientation Groundspeed Altitude Reporting Facility
EDT Latitude Longitude Course Direction KTS MPH feet Rate Location/Type
12:24AM 47.5547 -122.3264 328° Northwest 207 238 1,200  Level Seattle Center
12:25AM 47.5839 -122.3531 328° Northwest 221 254 2,500 2,640 Climbing Seattle Center
12:26AM 47.6317 -122.4286 313° West 270 311 5,300 2,820 Climbing Seattle Center
12:27AM 47.7253 -122.4339 358° North 284 327 9,300 2,340 Climbing Seattle Center
12:28AM 47.8014 -122.3708 29° Northeast 313 360 11,000 1,860 Climbing Seattle Center
12:29AM 47.8847 -122.3050 28° Northeast 368 423 13,100 2,100 Climbing Seattle Center
12:30AM 47.9761 -122.2319 28° Northeast 378 435 15,300 2,160 Climbing Seattle Center
12:31AM 48.0719 -122.1553 28° Northeast 392 451 17,500 2,340 Climbing Seattle Center
12:32AM 48.1878 -122.0567 30° Northeast 401 461 20,100 2,220 Climbing Seattle Center
12:33AM 48.2717 -121.9378 43° Northeast 413 475 22,100 1,860 Climbing Seattle Center
12:34AM 48.3600 -121.8164 42° Northeast 432 497 23,900 1,740 Climbing Seattle Center
12:35AM 48.4500 -121.6911 43° Northeast 442 509 25,700 1,680 Climbing Seattle Center
12:36AM 48.5419 -121.5628 43° Northeast 453 521 27,400 1,440 Climbing Seattle Center
12:37AM 48.6378 -121.4303 42° Northeast 468 539 28,700 1,320 Climbing Seattle Center
12:38AM 48.7356 -121.2942 43° Northeast 481 554 30,100 1,620 Climbing Seattle Center
12:40AM 48.9333 -120.9833 46° Northeast 480 552 33,700 1,560 Climbing Vancouver Center
12:41AM 49.0333 -120.8500 41° Northeast 480 552 34,900 1,200 Climbing Vancouver Center
12:42AM 49.1333 -120.7167 41° Northeast 490 564 36,100 1,140 Climbing Vancouver Center
12:43AM 49.2333 -120.5500 47° Northeast 490 564 37,200 900 Climbing Vancouver Center
12:44AM 49.3333 -120.4500 33° Northeast 490 564 38,000 360 Climbing Vancouver Center
12:45AM 49.4667 -120.3833 18° North 480 552 38,000 420 Level Vancouver Center
12:46AM 49.6000 -120.3500 North 480 552 38,900 960 Climbing Vancouver Center
12:47AM 49.7333 -120.3167 North 480 552 40,000 540 Climbing Vancouver Center
12:48AM 49.8500 -120.2833 10° North 480 552 40,000  Level Vancouver Center
12:49AM 50.0000 -120.2333 12° North 480 552 40,000  Level Vancouver Center
12:50AM 50.1167 -120.2000 10° North 490 564 40,000  Level Vancouver Center
12:51AM 50.2667 -120.1333 16° North 490 564 40,000  Level Vancouver Center
12:52AM 50.3833 -120.1000 10° North 480 552 40,000  Level Vancouver Center
12:53AM 50.5167 -120.0667 North 490 564 40,000  Level Vancouver Center
12:54AM 50.6667 -120.0333 North 490 564 40,000  Level Vancouver Center
12:55AM 50.7833 -120.0000 10° North 490 564 40,000  Level Vancouver Center
12:56AM 50.9167 -119.9500 13° North 490 564 40,000  Level Vancouver Center
12:57AM 51.0667 -119.9167 North 490 564 40,000  Level Vancouver Center
12:58AM 51.1667 -119.8500 23° Northeast 490 564 40,000  Level Vancouver Center
12:59AM 51.3167 -119.8167 North 480 552 40,000  Level Vancouver Center
01:00AM 51.4333 -119.7833 10° North 480 552 40,000  Level Vancouver Center
01:01AM 51.5833 -119.7333 12° North 490 564 40,000  Level Vancouver Center
01:02AM 51.7167 -119.7000 North 480 552 40,000  Level Vancouver Center
01:03AM 51.8333 -119.6667 10° North 480 552 40,000  Level Vancouver Center
01:04AM 51.9667 -119.6500 North 480 552 40,000  Level Edmonton Center
01:05AM 52.1000 -119.6167 North 480 552 40,000  Level Edmonton Center
01:06AM 52.2333 -119.5833 North 480 552 40,000  Level Edmonton Center
01:07AM 52.3667 -119.5500 North 480 552 40,000  Level Edmonton Center
01:08AM 52.5000 -119.5167 North 480 552 40,000  Level Edmonton Center
01:09AM 52.6500 -119.4500 15° North 480 552 40,000  Level Edmonton Center
01:10AM 52.7667 -119.4000 15° North 480 552 40,000  Level Edmonton Center
01:11AM 52.9000 -119.3667 North 480 552 40,000  Level Edmonton Center
01:12AM 53.0167 -119.3167 14° North 480 552 40,000  Level Edmonton Center
01:13AM 53.1667 -119.2667 11° North 480 552 40,000  Level Edmonton Center
01:14AM 53.3000 -119.2167 13° North 480 552 40,000  Level Edmonton Center
01:15AM 53.4333 -119.1833 North 480 552 40,000  Level Edmonton Center
01:16AM 53.5667 -119.1333 13° North 470 541 40,000  Level Edmonton Center
01:17AM 53.6833 -119.1000 10° North 470 541 40,000  Level Edmonton Center
01:18AM 53.8167 -119.0333 16° North 470 541 40,000  Level Edmonton Center
01:19AM 53.9500 -118.9833 12° North 470 541 40,000  Level Edmonton Center
01:20AM 54.0833 -118.9500 North 470 541 40,000  Level Edmonton Center
01:21AM 54.2167 -118.9000 12° North 470 541 40,000  Level Edmonton Center
01:22AM 54.3333 -118.8667 North 470 541 40,000  Level Edmonton Center
01:23AM 54.4667 -118.8167 12° North 470 541 40,000  Level Edmonton Center
01:24AM 54.6000 -118.7500 16° North 470 541 40,000  Level Edmonton Center
01:25AM 54.7333 -118.7000 12° North 470 541 40,000  Level Edmonton Center
01:26AM 54.8667 -118.6667 North 470 541 40,000  Level Edmonton Center
01:27AM 54.9833 -118.6167 14° North 470 541 40,000  Level Edmonton Center
01:28AM 55.1333 -118.5667 11° North 470 541 40,000  Level Edmonton Center
01:29AM 55.2500 -118.5333 North 470 541 40,000  Level Edmonton Center
01:30AM 55.3833 -118.4500 20° North 480 552 40,000  Level Edmonton Center
01:31AM 55.5000 -118.4000 14° North 480 552 40,000  Level Edmonton Center
01:32AM 55.6500 -118.3667 North 480 552 40,000  Level Edmonton Center
01:33AM 55.7833 -118.3167 12° North 470 541 40,000  Level Edmonton Center
01:34AM 55.9000 -118.2500 18° North 470 541 40,000  Level Edmonton Center
01:35AM 56.0333 -118.2000 12° North 480 552 40,000  Level Edmonton Center
01:36AM 56.1500 -118.1500 13° North 470 541 40,000  Level Edmonton Center
01:37AM 56.2833 -118.1000 12° North 460 529 40,000  Level Edmonton Center
01:38AM 56.4167 -118.0500 12° North 460 529 40,000  Level Edmonton Center
01:39AM 56.5500 -118.0000 12° North 470 541 40,000  Level Edmonton Center
01:40AM 56.6667 -117.9500 13° North 460 529 40,000  Level Edmonton Center
01:41AM 56.8000 -117.9167 North 470 541 40,000  Level Edmonton Center
01:42AM 56.9333 -117.8667 12° North 470 541 40,000  Level Edmonton Center
01:43AM 57.0500 -117.7833 21° North 470 541 40,000  Level Edmonton Center
01:44AM 57.1833 -117.7333 11° North 470 541 40,000  Level Edmonton Center
01:45AM 57.3333 -117.6833 10° North 470 541 40,000  Level Edmonton Center
01:46AM 57.4500 -117.6333 13° North 470 541 40,000  Level Edmonton Center
01:47AM 57.5833 -117.5500 19° North 470 541 40,000  Level Edmonton Center
01:48AM 57.7000 -117.5000 13° North 470 541 40,000  Level Edmonton Center
01:49AM 57.8333 -117.4500 11° North 470 541 40,000  Level Edmonton Center
01:50AM 57.9500 -117.4000 13° North 470 541 40,000  Level Edmonton Center
01:51AM 58.0833 -117.3333 15° North 470 541 40,000  Level Edmonton Center
01:52AM 58.2167 -117.3000 North 470 541 40,000  Level Edmonton Center
01:53AM 58.3500 -117.2333 15° North 470 541 40,000  Level Edmonton Center
01:54AM 58.4833 -117.1500 18° North 480 552 40,000  Level Edmonton Center
01:55AM 58.6000 -117.1000 13° North 480 552 40,000  Level Edmonton Center
01:56AM 58.7500 -117.0167 16° North 480 552 40,000  Level Edmonton Center
01:57AM 58.8833 -116.9667 11° North 480 552 40,000  Level Edmonton Center
01:58AM 59.0000 -116.8667 24° Northeast 480 552 40,000  Level Edmonton Center
01:59AM 59.1500 -116.8167 10° North 480 552 40,000  Level Edmonton Center
02:00AM 59.2667 -116.7667 12° North 480 552 40,000  Level Edmonton Center
02:01AM 59.4000 -116.6833 18° North 480 552 40,000  Level Edmonton Center
02:02AM 59.5333 -116.5833 21° North 480 552 40,000  Level Edmonton Center
02:03AM 59.6500 -116.5333 12° North 480 552 40,000  Level Edmonton Center
02:04AM 59.7833 -116.4667 14° North 480 552 40,000  Level Edmonton Center
02:05AM 59.9167 -116.3833 17° North 480 552 40,000  Level Edmonton Center
02:06AM 60.0500 -116.3167 14° North 480 552 40,000  Level Edmonton Center
02:07AM 60.1833 -116.2333 17° North 480 552 40,000  Level Edmonton Center
02:08AM 60.3000 -116.1667 16° North 480 552 40,000  Level Edmonton Center
02:09AM 60.4500 -116.0833 15° North 480 552 40,000  Level Edmonton Center
02:10AM 60.5667 -116.0167 16° North 480 552 40,000  Level Edmonton Center
02:11AM 60.7000 -115.9167 20° North 480 552 40,000  Level Edmonton Center
02:12AM 60.8333 -115.8667 10° North 480 552 40,000  Level Edmonton Center
02:13AM 60.9500 -115.7667 23° Northeast 480 552 40,000  Level Edmonton Center
02:14AM 61.0833 -115.6667 20° North 480 552 40,000  Level Edmonton Center
02:15AM 61.2000 -115.5667 22° Northeast 480 552 40,000  Level Edmonton Center
02:16AM 61.3167 -115.4667 22° Northeast 480 552 40,000  Level Edmonton Center
02:17AM 61.4500 -115.3667 20° North 480 552 40,000  Level Edmonton Center
02:18AM 61.5833 -115.2667 20° North 480 552 40,000  Level Edmonton Center
02:19AM 61.7000 -115.1500 25° Northeast 480 552 40,000  Level Edmonton Center
02:20AM 61.8167 -115.0500 22° Northeast 480 552 40,000  Level Edmonton Center
02:21AM 61.9667 -114.9167 23° Northeast 470 541 40,000  Level Edmonton Center
02:22AM 62.0667 -114.8000 29° Northeast 470 541 40,000  Level Edmonton Center
02:23AM 62.2000 -114.7000 19° North 470 541 40,000  Level Edmonton Center
02:24AM 62.3333 -114.5833 22° Northeast 480 552 40,000  Level Edmonton Center
02:25AM 62.4500 -114.4833 22° Northeast 470 541 40,000  Level Edmonton Center
02:27AM 62.5833 -114.3000 32° Northeast 470 541 40,000  Level Edmonton Center
02:28AM 62.7000 -114.1500 31° Northeast 470 541 40,000  Level Edmonton Center
02:29AM 62.8167 -113.9667 36° Northeast 470 541 40,000  Level Edmonton Center
02:30AM 62.9167 -113.8000 37° Northeast 470 541 40,000  Level Edmonton Center
02:31AM 63.0167 -113.6500 34° Northeast 470 541 40,000  Level Edmonton Center
02:32AM 63.1333 -113.4500 38° Northeast 470 541 40,000  Level Edmonton Center
02:33AM 63.2500 -113.3000 30° Northeast 470 541 40,000  Level Edmonton Center
02:34AM 63.3667 -113.1000 38° Northeast 470 541 40,000  Level Edmonton Center
02:35AM 63.4667 -112.9500 34° Northeast 480 552 40,000  Level Edmonton Center
02:36AM 63.5833 -112.7833 32° Northeast 470 541 40,000  Level Edmonton Center
02:37AM 63.6833 -112.5833 42° Northeast 470 541 40,000  Level Edmonton Center
02:38AM 63.7833 -112.4167 36° Northeast 470 541 40,000  Level Edmonton Center
02:39AM 63.9000 -112.2500 32° Northeast 470 541 40,000  Level Edmonton Center
02:40AM 64.0167 -112.0833 32° Northeast 470 541 40,000  Level Edmonton Center
02:41AM 64.1000 -111.8667 49° Northeast 470 541 40,000  Level Edmonton Center
02:42AM 64.2167 -111.7000 32° Northeast 470 541 40,000  Level Edmonton Center
02:43AM 64.3333 -111.5333 32° Northeast 470 541 40,000  Level Edmonton Center
02:44AM 64.4333 -111.3667 36° Northeast 470 541 40,000  Level Edmonton Center
02:45AM 64.5500 -111.1500 39° Northeast 470 541 40,000  Level Edmonton Center
02:46AM 64.6333 -110.9667 43° Northeast 470 541 40,000  Level Edmonton Center
02:47AM 64.7500 -110.7500 38° Northeast 470 541 40,000  Level Edmonton Center
02:48AM 64.8500 -110.5833 35° Northeast 470 541 40,000  Level Edmonton Center
02:49AM 64.9500 -110.4000 38° Northeast 470 541 40,000  Level Edmonton Center
02:50AM 65.0500 -110.2167 38° Northeast 460 529 40,000  Level Edmonton Center
02:51AM 65.1667 -110.0333 33° Northeast 460 529 40,000  Level Edmonton Center
02:52AM 65.2667 -109.8500 37° Northeast 460 529 40,100 480 Climbing Edmonton Center
02:53AM 65.3667 -109.6333 42° Northeast 460 529 41,000 420 Climbing Edmonton Center
02:54AM 65.4500 -109.4333 45° Northeast 460 529 41,000  Level Edmonton Center
02:55AM 65.5833 -109.2500 30° Northeast 470 541 41,000  Level Edmonton Center
02:56AM 65.6667 -109.0167 49° Northeast 470 541 41,000  Level Edmonton Center
02:58AM 65.8752 -108.7456 28° Northeast  Level Estimated
03:05AM 66.6812 -107.6483 28° Northeast  Level Estimated
03:06AM 66.7957 -107.4857 29° Northeast  Level Estimated
03:07AM 66.9100 -107.3215 29° Northeast  Level Estimated
03:08AM 67.0242 -107.1559 30° Northeast  Level Estimated
03:09AM 67.1382 -106.9886 30° Northeast  Level Estimated
03:10AM 67.2520 -106.8198 30° Northeast  Level Estimated
03:11AM 67.3656 -106.6494 30° Northeast  Level Estimated
03:12AM 67.4790 -106.4773 30° Northeast  Level Estimated
03:13AM 67.5923 -106.3036 30° Northeast  Level Estimated
03:14AM 67.7054 -106.1282 30° Northeast  Level Estimated
03:15AM 67.8183 -105.9512 31° Northeast  Level Estimated
03:16AM 67.9310 -105.7724 31° Northeast  Level Estimated
03:17AM 68.0435 -105.5919 31° Northeast  Level Estimated
03:18AM 68.1558 -105.4096 31° Northeast  Level Estimated
03:19AM 68.2679 -105.2255 31° Northeast  Level Estimated
03:20AM 68.3798 -105.0396 31° Northeast  Level Estimated
03:21AM 68.4914 -104.8518 32° Northeast  Level Estimated
03:22AM 68.6029 -104.6622 32° Northeast  Level Estimated
03:23AM 68.7142 -104.4707 32° Northeast  Level Estimated
03:24AM 68.8252 -104.2773 32° Northeast  Level Estimated
03:25AM 68.9360 -104.0819 32° Northeast  Level Estimated
03:26AM 69.0466 -103.8846 33° Northeast  Level Estimated
03:27AM 69.1570 -103.6853 33° Northeast  Level Estimated
03:28AM 69.2671 -103.4839 33° Northeast  Level Estimated
03:29AM 69.3770 -103.2805 33° Northeast  Level Estimated
03:30AM 69.4866 -103.0751 33° Northeast  Level Estimated
03:31AM 69.5961 -102.8675 33° Northeast  Level Estimated
03:32AM 69.7052 -102.6577 34° Northeast  Level Estimated
03:33AM 69.8141 -102.4458 34° Northeast  Level Estimated
03:34AM 69.9228 -102.2317 34° Northeast  Level Estimated
03:35AM 70.0312 -102.0154 34° Northeast  Level Estimated
03:36AM 70.1393 -101.7968 34° Northeast  Level Estimated
03:37AM 70.2471 -101.5759 35° Northeast  Level Estimated
03:38AM 70.3547 -101.3527 35° Northeast  Level Estimated
03:39AM 70.4620 -101.1271 35° Northeast  Level Estimated
03:40AM 70.5690 -100.8992 35° Northeast  Level Estimated
03:41AM 70.6758 -100.6688 36° Northeast  Level Estimated
03:42AM 70.7822 -100.4360 36° Northeast  Level Estimated
03:43AM 70.8883 -100.2006 36° Northeast  Level Estimated
03:44AM 70.9942 -99.9628 36° Northeast  Level Estimated
03:45AM 71.0997 -99.7223 36° Northeast  Level Estimated
03:46AM 71.2049 -99.4793 37° Northeast  Level Estimated
03:47AM 71.3098 -99.2337 37° Northeast  Level Estimated
03:48AM 71.4144 -98.9854 37° Northeast  Level Estimated
03:49AM 71.5187 -98.7343 37° Northeast  Level Estimated
03:50AM 71.6226 -98.4806 38° Northeast  Level Estimated
03:51AM 71.7262 -98.2240 38° Northeast  Level Estimated
03:52AM 71.8294 -97.9646 38° Northeast  Level Estimated
03:53AM 71.9323 -97.7024 38° Northeast  Level Estimated
03:54AM 72.0348 -97.4373 39° Northeast  Level Estimated
03:55AM 72.1369 -97.1692 39° Northeast  Level Estimated
03:56AM 72.2387 -96.8982 39° Northeast  Level Estimated
03:57AM 72.3401 -96.6241 39° Northeast  Level Estimated
03:58AM 72.4412 -96.3470 40° Northeast  Level Estimated
03:59AM 72.5418 -96.0668 40° Northeast  Level Estimated
04:00AM 72.6421 -95.7834 40° Northeast  Level Estimated
04:01AM 72.7419 -95.4969 40° Northeast  Level Estimated
04:02AM 72.8413 -95.2071 41° Northeast  Level Estimated
04:03AM 72.9403 -94.9140 41° Northeast  Level Estimated
04:04AM 73.0389 -94.6177 41° Northeast  Level Estimated
04:05AM 73.1371 -94.3180 41° Northeast  Level Estimated
04:06AM 73.2348 -94.0149 42° Northeast  Level Estimated
04:07AM 73.3320 -93.7084 42° Northeast  Level Estimated
04:08AM 73.4288 -93.3983 42° Northeast  Level Estimated
04:09AM 73.5252 -93.0847 43° Northeast  Level Estimated
04:10AM 73.6211 -92.7676 43° Northeast  Level Estimated
04:11AM 73.7165 -92.4468 43° Northeast  Level Estimated
04:12AM 73.8113 -92.1224 44° Northeast  Level Estimated
04:13AM 73.9057 -91.7943 44° Northeast  Level Estimated
04:14AM 73.9996 -91.4623 44° Northeast  Level Estimated
04:15AM 74.0930 -91.1266 44° Northeast  Level Estimated
04:16AM 74.1859 -90.7871 45° Northeast  Level Estimated
04:17AM 74.2782 -90.4436 45° Northeast  Level Estimated
04:18AM 74.3700 -90.0962 45° Northeast  Level Estimated
04:19AM 74.4612 -89.7448 46° Northeast  Level Estimated
04:20AM 74.5519 -89.3894 46° Northeast  Level Estimated
04:21AM 74.6420 -89.0299 46° Northeast  Level Estimated
04:22AM 74.7315 -88.6663 47° Northeast  Level Estimated
04:23AM 74.8204 -88.2984 47° Northeast  Level Estimated
04:24AM 74.9087 -87.9264 48° Northeast  Level Estimated
04:25AM 74.9964 -87.5501 48° Northeast  Level Estimated
04:26AM 75.0835 -87.1695 48° Northeast  Level Estimated
04:27AM 75.1699 -86.7846 49° Northeast  Level Estimated
04:28AM 75.2557 -86.3953 49° Northeast  Level Estimated
04:29AM 75.3409 -86.0015 49° Northeast  Level Estimated
04:30AM 75.4253 -85.6032 50° Northeast  Level Estimated
04:31AM 75.5091 -85.2004 50° Northeast  Level Estimated
04:32AM 75.5922 -84.7931 51° Northeast  Level Estimated
04:33AM 75.6746 -84.3811 51° Northeast  Level Estimated
04:34AM 75.7562 -83.9645 51° Northeast  Level Estimated
04:35AM 75.8372 -83.5433 52° Northeast  Level Estimated
04:36AM 75.9173 -83.1173 52° Northeast  Level Estimated
04:37AM 75.9968 -82.6865 53° Northeast  Level Estimated
04:38AM 76.0754 -82.2510 53° Northeast  Level Estimated
04:39AM 76.1533 -81.8106 53° Northeast  Level Estimated
04:40AM 76.2304 -81.3653 54° Northeast  Level Estimated
04:41AM 76.3067 -80.9152 54° Northeast  Level Estimated
04:42AM 76.3821 -80.4602 55° Northeast  Level Estimated
04:43AM 76.4568 -80.0002 55° Northeast  Level Estimated
04:44AM 76.5305 -79.5352 56° Northeast  Level Estimated
04:45AM 76.6034 -79.0653 56° Northeast  Level Estimated
04:46AM 76.6755 -78.5903 56° Northeast  Level Estimated
04:47AM 76.7466 -78.1103 57° Northeast  Level Estimated
04:48AM 76.8168 -77.6252 57° Northeast  Level Estimated
04:49AM 76.8861 -77.1350 58° Northeast  Level Estimated
04:50AM 76.9545 -76.6398 58° Northeast  Level Estimated
04:51AM 77.0219 -76.1395 59° Northeast  Level Estimated
04:52AM 77.0884 -75.6341 59° Northeast  Level Estimated
04:53AM 77.1539 -75.1236 60° Northeast  Level Estimated
04:54AM 77.2183 -74.6080 60° Northeast  Level Estimated
04:55AM 77.2818 -74.0873 61° Northeast  Level Estimated
04:56AM 77.3443 -73.5614 61° Northeast  Level Estimated
04:57AM 77.4056 -73.0305 62° Northeast  Level Estimated
04:58AM 77.4660 -72.4946 62° Northeast  Level Estimated
04:59AM 77.5253 -71.9536 63° Northeast  Level Estimated
05:00AM 77.5834 -71.4075 63° Northeast  Level Estimated
05:01AM 77.6405 -70.8564 64° Northeast  Level Estimated
05:02AM 77.6965 -70.3003 64° Northeast  Level Estimated
05:03AM 77.7513 -69.7393 65° Northeast  Level Estimated
05:04AM 77.8050 -69.1734 66° East  Level Estimated
05:05AM 77.8575 -68.6026 66° East  Level Estimated
05:06AM 77.9088 -68.0270 67° East  Level Estimated
05:07AM 77.9590 -67.4466 67° East  Level Estimated
05:08AM 78.0079 -66.8614 68° East  Level Estimated
05:09AM 78.0556 -66.2716 68° East  Level Estimated
05:10AM 78.1021 -65.6772 69° East  Level Estimated
05:11AM 78.1473 -65.0783 70° East  Level Estimated
05:12AM 78.1913 -64.4749 70° East  Level Estimated
05:13AM 78.2339 -63.8671 71° East  Level Estimated
05:14AM 78.2753 -63.2551 71° East  Level Estimated
05:15AM 78.3153 -62.6388 72° East  Level Estimated
05:16AM 78.3541 -62.0184 73° East  Level Estimated
05:17AM 78.3915 -61.3941 73° East  Level Estimated
05:18AM 78.4275 -60.7658 74° East  Level Estimated
05:19AM 78.4622 -60.1337 74° East  Level Estimated
05:20AM 78.4955 -59.4979 75° East  Level Estimated
05:21AM 78.5275 -58.8585 76° East  Level Estimated
05:22AM 78.5580 -58.2157 76° East  Level Estimated
05:23AM 78.5871 -57.5696 77° East  Level Estimated
05:24AM 78.6148 -56.9203 78° East  Level Estimated
05:25AM 78.6411 -56.2680 78° East  Level Estimated
05:26AM 78.6659 -55.6128 79° East  Level Estimated
05:27AM 78.6893 -54.9548 79° East  Level Estimated
05:28AM 78.7112 -54.2942 80° East  Level Estimated
05:29AM 78.7317 -53.6311 81° East  Level Estimated
05:30AM 78.7506 -52.9658 81° East  Level Estimated
05:31AM 78.7681 -52.2983 82° East  Level Estimated
05:32AM 78.7841 -51.6289 83° East  Level Estimated
05:33AM 78.7986 -50.9576 83° East  Level Estimated
05:34AM 78.8116 -50.2848 84° East  Level Estimated
05:35AM 78.8231 -49.6104 85° East  Level Estimated
05:36AM 78.8331 -48.9348 85° East  Level Estimated
05:37AM 78.8416 -48.2581 86° East  Level Estimated
05:38AM 78.8485 -47.5805 87° East  Level Estimated
05:39AM 78.8539 -46.9021 87° East  Level Estimated
05:40AM 78.8578 -46.2231 88° East  Level Estimated
05:41AM 78.8602 -45.5438 89° East  Level Estimated
05:42AM 78.8611 -44.8643 89° East  Level Estimated
05:43AM 78.8604 -44.1848 90° East  Level Estimated
05:44AM 78.8582 -43.5055 91° East  Level Estimated
05:45AM 78.8544 -42.8265 91° East  Level Estimated
05:46AM 78.8492 -42.1480 92° East  Level Estimated
05:47AM 78.8424 -41.4703 93° East  Level Estimated
05:48AM 78.8341 -40.7935 93° East  Level Estimated
05:49AM 78.8243 -40.1178 94° East  Level Estimated
05:50AM 78.8129 -39.4433 95° East  Level Estimated
05:51AM 78.8001 -38.7702 95° East  Level Estimated
05:52AM 78.7858 -38.0988 96° East  Level Estimated
05:53AM 78.7699 -37.4292 97° East  Level Estimated
05:54AM 78.7526 -36.7615 97° East  Level Estimated
05:55AM 78.7338 -36.0959 98° East  Level Estimated
05:56AM 78.7135 -35.4326 99° East  Level Estimated
05:57AM 78.6917 -34.7717 99° East  Level Estimated
05:58AM 78.6685 -34.1135 100° East  Level Estimated
05:59AM 78.6438 -33.4579 101° East  Level Estimated
06:00AM 78.6177 -32.8053 101° East  Level Estimated
06:01AM 78.5902 -32.1557 102° East  Level Estimated
06:02AM 78.5612 -31.5092 102° East  Level Estimated
06:03AM 78.5308 -30.8660 103° East  Level Estimated
06:04AM 78.4990 -30.2263 104° East  Level Estimated
06:05AM 78.4659 -29.5901 104° East  Level Estimated
06:06AM 78.4313 -28.9576 105° East  Level Estimated
06:07AM 78.3954 -28.3289 106° East  Level Estimated
06:08AM 78.3582 -27.7041 106° East  Level Estimated
06:09AM 78.3196 -27.0833 107° East  Level Estimated
06:10AM 78.2797 -26.4666 107° East  Level Estimated
06:11AM 78.2384 -25.8541 108° East  Level Estimated
06:12AM 78.1959 -25.2458 109° East  Level Estimated
06:13AM 78.1521 -24.6420 109° East  Level Estimated
06:14AM 78.1070 -24.0426 110° East  Level Estimated
06:15AM 78.0607 -23.4477 110° East  Level Estimated
06:16AM 78.0131 -22.8574 111° Southeast  Level Estimated
06:17AM 77.9643 -22.2717 112° Southeast  Level Estimated
06:18AM 77.9143 -21.6908 112° Southeast  Level Estimated
06:19AM 77.8631 -21.1147 113° Southeast  Level Estimated
06:20AM 77.8107 -20.5433 113° Southeast  Level Estimated
06:21AM 77.7571 -19.9769 114° Southeast  Level Estimated
06:22AM 77.7024 -19.4153 114° Southeast  Level Estimated
06:23AM 77.6466 -18.8588 115° Southeast  Level Estimated
06:24AM 77.5896 -18.3071 115° Southeast  Level Estimated
06:25AM 77.5316 -17.7605 116° Southeast  Level Estimated
06:26AM 77.4724 -17.2190 117° Southeast  Level Estimated
06:27AM 77.4122 -16.6825 117° Southeast  Level Estimated
06:28AM 77.3509 -16.1510 118° Southeast  Level Estimated
06:29AM 77.2886 -15.6247 118° Southeast  Level Estimated
06:30AM 77.2252 -15.1034 119° Southeast  Level Estimated
06:31AM 77.1608 -14.5872 119° Southeast  Level Estimated
06:32AM 77.0955 -14.0762 120° Southeast  Level Estimated
06:33AM 77.0291 -13.5702 120° Southeast  Level Estimated
06:34AM 76.9618 -13.0694 121° Southeast  Level Estimated
06:35AM 76.8935 -12.5736 121° Southeast  Level Estimated
06:36AM 76.8243 -12.0829 122° Southeast  Level Estimated
06:37AM 76.7542 -11.5973 122° Southeast  Level Estimated
06:38AM 76.6832 -11.1167 123° Southeast  Level Estimated
06:39AM 76.6112 -10.6412 123° Southeast  Level Estimated
06:40AM 76.5384 -10.1707 123° Southeast  Level Estimated
06:41AM 76.4647 -9.7052 124° Southeast  Level Estimated
06:42AM 76.3902 -9.2447 124° Southeast  Level Estimated
06:43AM 76.3148 -8.7891 125° Southeast  Level Estimated
06:44AM 76.2386 -8.3385 125° Southeast  Level Estimated
06:45AM 76.1616 -7.8927 126° Southeast  Level Estimated
06:46AM 76.0838 -7.4518 126° Southeast  Level Estimated
06:47AM 76.0053 -7.0158 127° Southeast  Level Estimated
06:48AM 75.9259 -6.5845 127° Southeast  Level Estimated
06:49AM 75.8458 -6.1580 127° Southeast  Level Estimated
06:50AM 75.7650 -5.7362 128° Southeast  Level Estimated
06:51AM 75.6834 -5.3191 128° Southeast  Level Estimated
06:52AM 75.6011 -4.9067 129° Southeast  Level Estimated
06:53AM 75.5181 -4.4988 129° Southeast  Level Estimated
06:54AM 75.4343 -4.0955 129° Southeast  Level Estimated
06:55AM 75.3500 -3.6968 130° Southeast  Level Estimated
06:56AM 75.2649 -3.3025 130° Southeast  Level Estimated
06:57AM 75.1792 -2.9127 131° Southeast  Level Estimated
06:58AM 75.0928 -2.5273 131° Southeast  Level Estimated
06:59AM 75.0058 -2.1463 131° Southeast  Level Estimated
07:00AM 74.9182 -1.7695 132° Southeast  Level Estimated
07:01AM 74.8299 -1.3970 132° Southeast  Level Estimated
07:02AM 74.7411 -1.0288 132° Southeast  Level Estimated
07:03AM 74.6516 -0.6647 133° Southeast  Level Estimated
07:04AM 74.5616 -0.3047 133° Southeast  Level Estimated
07:05AM 74.4710 0.0511 133° Southeast  Level Estimated
07:06AM 74.3798 0.4029 134° Southeast  Level Estimated
07:07AM 74.2881 0.7508 134° Southeast  Level Estimated
07:08AM 74.1958 1.0947 134° Southeast  Level Estimated
07:09AM 74.1030 1.4346 135° Southeast  Level Estimated
07:10AM 74.0097 1.7708 135° Southeast  Level Estimated
07:11AM 73.9158 2.1031 135° Southeast  Level Estimated
07:12AM 73.8215 2.4316 136° Southeast  Level Estimated
07:13AM 73.7266 2.7564 136° Southeast  Level Estimated
07:14AM 73.6313 3.0776 136° Southeast  Level Estimated
07:15AM 73.5355 3.3951 137° Southeast  Level Estimated
07:16AM 73.4392 3.7091 137° Southeast  Level Estimated
07:17AM 73.3424 4.0195 137° Southeast  Level Estimated
07:18AM 73.2452 4.3264 138° Southeast  Level Estimated
07:19AM 73.1476 4.6299 138° Southeast  Level Estimated
07:20AM 73.0495 4.9300 138° Southeast  Level Estimated
07:21AM 72.9509 5.2267 138° Southeast  Level Estimated
07:22AM 72.8520 5.5201 139° Southeast  Level Estimated
07:23AM 72.7526 5.8102 139° Southeast  Level Estimated
07:24AM 72.6528 6.0971 139° Southeast  Level Estimated
07:25AM 72.5526 6.3808 140° Southeast  Level Estimated
07:26AM 72.4520 6.6613 140° Southeast  Level Estimated
07:27AM 72.3510 6.9388 140° Southeast  Level Estimated
07:28AM 72.2497 7.2131 140° Southeast  Level Estimated
07:29AM 72.1479 7.4845 141° Southeast  Level Estimated
07:30AM 72.0458 7.7529 141° Southeast  Level Estimated
07:31AM 71.9433 8.0183 141° Southeast  Level Estimated
07:32AM 71.8405 8.2809 141° Southeast  Level Estimated
07:33AM 71.7373 8.5405 142° Southeast  Level Estimated
07:34AM 71.6337 8.7974 142° Southeast  Level Estimated
07:35AM 71.5299 9.0515 142° Southeast  Level Estimated
07:36AM 71.4257 9.3028 142° Southeast  Level Estimated
07:37AM 71.3211 9.5514 143° Southeast  Level Estimated
07:38AM 71.2162 9.7973 143° Southeast  Level Estimated
07:39AM 71.1111 10.0406 143° Southeast  Level Estimated
07:40AM 71.0055 10.2813 143° Southeast  Level Estimated
07:41AM 70.8997 10.5195 144° Southeast  Level Estimated
07:42AM 70.7936 10.7551 144° Southeast  Level Estimated
07:43AM 70.6872 10.9882 144° Southeast  Level Estimated
07:44AM 70.5805 11.2188 144° Southeast  Level Estimated
07:45AM 70.4735 11.4470 144° Southeast  Level Estimated
07:46AM 70.3663 11.6729 145° Southeast  Level Estimated
07:47AM 70.2587 11.8963 145° Southeast  Level Estimated
07:48AM 70.1509 12.1175 145° Southeast  Level Estimated
07:49AM 70.0428 12.3363 145° Southeast  Level Estimated
07:50AM 69.9344 12.5529 146° Southeast  Level Estimated
07:51AM 69.8258 12.7672 146° Southeast  Level Estimated
07:52AM 69.7169 12.9794 146° Southeast  Level Estimated
07:53AM 69.6078 13.1893 146° Southeast  Level Estimated
07:54AM 69.4984 13.3971 146° Southeast  Level Estimated
07:55AM 69.3888 13.6028 147° Southeast  Level Estimated
07:56AM 69.2790 13.8065 147° Southeast  Level Estimated
07:57AM 69.1689 14.0080 147° Southeast  Level Estimated
07:58AM 69.0585 14.2076 147° Southeast  Level Estimated
07:59AM 68.9480 14.4051 147° Southeast  Level Estimated
08:00AM 68.8372 14.6007 147° Southeast  Level Estimated
08:01AM 68.7262 14.7943 148° Southeast  Level Estimated
08:02AM 68.6149 14.9860 148° Southeast  Level Estimated
08:03AM 68.5035 15.1758 148° Southeast  Level Estimated
08:04AM 68.3918 15.3638 148° Southeast  Level Estimated
08:05AM 68.2799 15.5499 148° Southeast  Level Estimated
08:06AM 68.1679 15.7341 149° Southeast  Level Estimated
08:07AM 68.0556 15.9166 149° Southeast  Level Estimated
08:08AM 67.9431 16.0973 149° Southeast  Level Estimated
08:09AM 67.8304 16.2763 149° Southeast  Level Estimated
08:10AM 67.7176 16.4536 149° Southeast  Level Estimated
08:11AM 67.6045 16.6292 149° Southeast  Level Estimated
08:12AM 67.4912 16.8030 150° Southeast  Level Estimated
08:13AM 67.3778 16.9753 150° Southeast  Level Estimated
08:14AM 67.2642 17.1459 150° Southeast  Level Estimated
08:15AM 67.1504 17.3148 150° Southeast  Level Estimated
08:16AM 67.0365 17.4823 150° Southeast  Level Estimated
08:17AM 66.9223 17.6481 150° Southeast  Level Estimated
08:18AM 66.8080 17.8124 150° Southeast  Level Estimated
08:19AM 66.6935 17.9752 151° Southeast  Level Estimated
08:20AM 66.5789 18.1364 151° Southeast  Level Estimated
08:21AM 66.4641 18.2962 151° Southeast  Level Estimated
08:22AM 66.3491 18.4545 151° Southeast  Level Estimated
08:23AM 66.2339 18.6114 151° Southeast  Level Estimated
08:24AM 66.1187 18.7669 151° Southeast  Level Estimated
08:25AM 66.0032 18.9209 151° Southeast  Level Estimated
08:26AM 65.8876 19.0735 152° Southeast  Level Estimated
08:27AM 65.7719 19.2248 152° Southeast  Level Estimated
08:28AM 65.6560 19.3748 152° Southeast  Level Estimated
08:29AM 65.5399 19.5233 152° Southeast  Level Estimated
08:30AM 65.4237 19.6706 152° Southeast  Level Estimated
08:31AM 65.3074 19.8166 152° Southeast  Level Estimated
08:32AM 65.1909 19.9613 152° Southeast  Level Estimated
08:33AM 65.0743 20.1047 153° Southeast  Level Estimated
08:34AM 64.9576 20.2469 153° Southeast  Level Estimated
08:35AM 64.8407 20.3878 153° Southeast  Level Estimated
08:36AM 64.7237 20.5275 153° Southeast  Level Estimated
08:37AM 64.6066 20.6660 153° Southeast  Level Estimated
08:38AM 64.4893 20.8033 153° Southeast  Level Estimated
08:39AM 64.3719 20.9395 153° Southeast  Level Estimated
08:40AM 64.2544 21.0745 153° Southeast  Level Estimated
08:41AM 64.1367 21.2083 154° Southeast  Level Estimated
08:42AM 64.0190 21.3410 154° Southeast  Level Estimated
08:43AM 63.9011 21.4727 154° Southeast  Level Estimated
08:44AM 63.7831 21.6031 154° Southeast  Level Estimated
08:45AM 63.6649 21.7326 154° Southeast  Level Estimated
08:46AM 63.5467 21.8609 154° Southeast  Level Estimated
08:47AM 63.4283 21.9882 154° Southeast  Level Estimated
08:48AM 63.3099 22.1144 154° Southeast  Level Estimated
08:49AM 63.1913 22.2396 155° Southeast  Level Estimated
08:50AM 63.0726 22.3638 155° Southeast  Level Estimated
08:51AM 62.9538 22.4869 155° Southeast  Level Estimated
08:52AM 62.8349 22.6091 155° Southeast  Level Estimated
08:53AM 62.7160 22.7303 155° Southeast  Level Estimated
08:54AM 62.5969 22.8505 155° Southeast  Level Estimated
08:55AM 62.4776 22.9697 155° Southeast  Level Estimated
08:56AM 62.3583 23.0880 155° Southeast  Level Estimated
08:57AM 62.2389 23.2054 155° Southeast  Level Estimated
08:58AM 62.1194 23.3218 155° Southeast  Level Estimated
08:59AM 61.9998 23.4374 156° South  Level Estimated
09:00AM 61.8801 23.5520 156° South  Level Estimated
09:01AM 61.7603 23.6657 156° South  Level Estimated
09:02AM 61.6404 23.7785 156° South  Level Estimated
09:03AM 61.5205 23.8905 156° South  Level Estimated
09:04AM 61.4004 24.0016 156° South  Level Estimated
09:05AM 61.2802 24.1119 156° South  Level Estimated
09:06AM 61.1600 24.2213 156° South  Level Estimated
09:07AM 61.0396 24.3299 156° South  Level Estimated
09:08AM 60.9192 24.4377 156° South  Level Estimated
09:09AM 60.7987 24.5446 157° South  Level Estimated
09:10AM 60.6781 24.6508 157° South  Level Estimated
09:11AM 60.5574 24.7561 157° South  Level Estimated
09:12AM 60.4367 24.8607 157° South  Level Estimated
09:13AM 60.3172 24.9633 157° South  Level Estimated
09:14AM 60.3172 24.9633 37° Northeast  Level Estimated
09:15AM 60.3172 24.9633 37° Northeast  Level Estimated
09:16AM 60.3172 24.9633 37° Northeast  Level Estimated
09:17AM 60.3172 24.9633 37° Northeast  Level Estimated
09:18AM 60.3172 24.9633 37° Northeast  Level Estimated
09:19AM 60.3172 24.9633 37° Northeast  Level Estimated
09:20AM 60.3172 24.9633 37° Northeast  Level Estimated
09:21AM 60.3172 24.9633 37° Northeast  Level Estimated
09:22AM 60.3172 24.9633 37° Northeast  Level Estimated
09:23AM 60.3172 24.9633 37° Northeast  Level Estimated
09:24AM 60.3172 24.9633 37° Northeast  Level Estimated
09:25AM 60.3172 24.9633 37° Northeast  Level Estimated
09:26AM 60.3172 24.9633 37° Northeast  Level Estimated
09:27AM 60.3172 24.9633 37° Northeast  Level Estimated
09:28AM 60.3172 24.9633 37° Northeast  Level Estimated
09:29AM 60.3172 24.9633 37° Northeast  Level Estimated
09:30AM 60.3172 24.9633 37° Northeast  Level Estimated
09:31AM 60.3172 24.9633 37° Northeast  Level Estimated
09:32AM 60.3172 24.9633 37° Northeast  Level Estimated
09:33AM 60.3172 24.9633 37° Northeast  Level Estimated
09:34AM 60.3172 24.9633 37° Northeast  Level Estimated
09:35AM 60.3172 24.9633 37° Northeast  Level Estimated
09:36AM 60.3172 24.9633 37° Northeast  Level Estimated
09:37AM 60.3172 24.9633 37° Northeast  Level Estimated
09:38AM 60.3172 24.9633 37° Northeast  Level Estimated